Terminal Aerodrome Forecast
Issued by NWS Austin/San Antonio, TX

Home | Current Version | Previous Version | Text Only | Print | Product List | Glossary On
Versions: 1 2 3 4 5 6 7 8 9 10 11 12 13 14 15 16 17 18 19 20 21 22 23 24
000
FTUS44 KEWX 201900 AAA
TAFSAT
TAF AMD
KSAT 201929Z 2019/2124 02010KT P6SM FEW020 SCT080
     FM210100 VRB03KT P6SM OVC015
     FM211100 25003KT 4SM BR OVC007
     FM211500 10003KT P6SM OVC015
     FM211700 16004KT P6SM BKN025
     FM212000 20006KT P6SM SCT040 SCT250=

USA.gov is the U.S. government's official web portal to all federal, state and local government web resources and services.